Time;durP1;ratioP1;P1;durP2;ratioP2;P2;SDS_P1;SDS_P2;PMS_P1;PMS_P2;Temp;Humidity;BMP_temperature;BMP_pressure;BME280_temperature;BME280_humidity;BME280_pressure;Samples;Min_cycle;Max_cycle;Signal;HPM_P1;HPM_P2
2023/06/12 00:01:39;;;;;;;13.90;13.30;;;18.50;99.90;;;;;;5093494;27;20510;-68
2023/06/12 00:04:06;;;;;;;13.30;12.80;;;18.50;99.90;;;;;;5104425;27;20511;-67
2023/06/12 00:06:35;;;;;;;13.53;13.03;;;18.40;99.90;;;;;;5110309;27;20461;-67
2023/06/12 00:09:03;;;;;;;13.40;12.90;;;18.30;99.90;;;;;;5109039;27;20456;-68
2023/06/12 00:14:14;;;;;;;13.43;12.93;;;18.20;99.90;;;;;;5094975;28;20476;-68
2023/06/12 00:16:41;;;;;;;13.30;12.80;;;18.20;99.90;;;;;;5109971;27;20860;-67
2023/06/12 00:19:08;;;;;;;13.67;13.17;;;18.10;99.90;;;;;;5120263;27;21005;-68
2023/06/12 00:21:35;;;;;;;13.43;12.93;;;18.10;99.90;;;;;;5107864;27;20953;-68
2023/06/12 00:24:04;;;;;;;13.40;12.90;;;18.00;99.90;;;;;;5101847;28;20460;-68
2023/06/12 00:26:32;;;;;;;13.60;13.10;;;18.00;99.90;;;;;;5111855;27;20837;-67
2023/06/12 00:28:59;;;;;;;13.33;12.83;;;18.00;99.90;;;;;;5103254;27;20812;-67
2023/06/12 00:31:26;;;;;;;13.67;13.17;;;17.90;99.90;;;;;;5106012;27;21084;-68
2023/06/12 00:33:53;;;;;;;13.47;12.97;;;17.90;99.90;;;;;;5116608;27;20460;-68
2023/06/12 00:36:20;;;;;;;13.50;13.00;;;17.90;99.90;;;;;;5122430;27;20484;-67
2023/06/12 00:38:48;;;;;;;13.00;12.50;;;17.80;99.90;;;;;;5098158;27;20468;-66
2023/06/12 00:41:15;;;;;;;13.37;12.87;;;17.80;99.90;;;;;;5097253;27;20471;-67
2023/06/12 00:43:43;;;;;;;14.33;13.73;;;17.80;99.90;;;;;;5107757;27;20453;-66
2023/06/12 00:46:11;;;;;;;13.53;13.03;;;17.80;99.90;;;;;;5126793;27;20460;-67
2023/06/12 00:48:40;;;;;;;13.53;13.03;;;17.80;99.90;;;;;;5100482;28;20458;-67
2023/06/12 00:51:08;;;;;;;13.30;12.80;;;17.70;99.90;;;;;;5109928;27;20994;-66
2023/06/12 00:53:36;;;;;;;13.17;12.67;;;17.60;99.90;;;;;;5099346;28;20901;-67
2023/06/12 00:56:02;;;;;;;13.37;12.87;;;17.50;99.90;;;;;;5093676;28;20462;-67
2023/06/12 00:58:31;;;;;;;13.50;13.00;;;17.50;99.90;;;;;;5106979;27;20873;-67
2023/06/12 01:00:59;;;;;;;13.10;12.60;;;17.50;99.90;;;;;;5105226;28;20484;-67
2023/06/12 01:03:26;;;;;;;13.00;12.50;;;17.50;99.90;;;;;;5105836;28;20456;-66
2023/06/12 01:05:53;;;;;;;13.00;12.50;;;17.50;99.90;;;;;;5117725;28;20460;-67
2023/06/12 01:08:29;;;;;;;13.00;12.50;;;17.40;99.90;;;;;;5101082;28;20457;-67
2023/06/12 01:10:58;;;;;;;13.27;12.77;;;17.40;99.90;;;;;;5099990;28;20489;-67
2023/06/12 01:13:25;;;;;;;12.93;12.43;;;17.30;99.90;;;;;;5107988;28;20471;-67
2023/06/12 01:15:53;;;;;;;13.53;13.03;;;17.20;99.90;;;;;;5122955;28;20483;-67
2023/06/12 01:18:22;;;;;;;12.83;12.33;;;17.10;99.90;;;;;;5109827;28;20603;-67
2023/06/12 01:20:50;;;;;;;13.50;13.00;;;17.10;99.90;;;;;;5113004;28;20467;-66
2023/06/12 01:23:43;;;;;;;13.23;12.73;;;16.90;99.90;;;;;;5116837;28;20453;-67
2023/06/12 01:26:36;;;;;;;13.30;12.80;;;16.80;99.90;;;;;;5099332;28;20464;-67
2023/06/12 01:29:28;;;;;;;13.30;12.80;;;16.70;99.90;;;;;;5127198;28;20833;-66
2023/06/12 01:32:02;;;;;;;13.10;12.60;;;16.70;99.90;;;;;;5101287;28;20542;-65
2023/06/12 01:34:37;;;;;;;13.20;12.70;;;16.60;99.90;;;;;;5109906;28;20487;-66
2023/06/12 01:37:13;;;;;;;13.17;12.67;;;16.70;99.90;;;;;;5101856;28;20842;-66
2023/06/12 01:39:42;;;;;;;13.50;13.00;;;16.70;99.90;;;;;;5120393;28;20462;-67
2023/06/12 01:42:10;;;;;;;13.33;12.83;;;16.70;99.90;;;;;;5098753;28;20540;-66
2023/06/12 01:44:38;;;;;;;12.93;12.43;;;16.70;99.90;;;;;;5101991;28;20555;-67
2023/06/12 01:47:07;;;;;;;13.57;13.07;;;16.60;99.90;;;;;;5109431;28;20487;-68
2023/06/12 01:49:34;;;;;;;13.07;12.57;;;16.60;99.90;;;;;;5098298;28;20983;-67
2023/06/12 01:52:02;;;;;;;12.77;12.27;;;16.60;99.90;;;;;;5099545;28;20986;-67
2023/06/12 01:54:28;;;;;;;12.83;12.33;;;16.60;99.90;;;;;;5106593;28;20485;-67
2023/06/12 01:56:57;;;;;;;12.80;12.30;;;16.50;99.90;;;;;;5108844;28;20464;-67
2023/06/12 01:59:24;;;;;;;12.77;12.27;;;16.50;99.90;;;;;;5120932;28;20455;-67
2023/06/12 02:01:51;;;;;;;13.00;12.50;;;16.40;99.90;;;;;;5098936;27;20453;-66
2023/06/12 02:04:19;;;;;;;13.17;12.67;;;16.40;99.90;;;;;;5099560;27;20459;-67
2023/06/12 02:06:46;;;;;;;13.67;13.17;;;16.40;99.90;;;;;;5102760;27;20548;-67
2023/06/12 02:09:13;;;;;;;12.40;11.90;;;16.50;99.90;;;;;;5121933;27;20471;-67
2023/06/12 02:11:41;;;;;;;12.33;11.83;;;16.50;99.90;;;;;;5117382;27;20595;-67
2023/06/12 02:14:10;;;;;;;12.03;11.57;;;16.40;99.90;;;;;;5105057;27;20456;-67
2023/06/12 02:16:36;;;;;;;12.87;12.37;;;16.20;99.90;;;;;;5111242;28;20535;-67
2023/06/12 02:19:04;;;;;;;12.30;11.80;;;16.00;99.90;;;;;;5125202;27;20457;-67
2023/06/12 02:21:33;;;;;;;11.67;11.27;;;15.90;99.90;;;;;;5115268;27;20548;-68
2023/06/12 02:23:59;;;;;;;11.30;10.90;;;15.90;99.90;;;;;;5118752;27;20459;-67
2023/06/12 02:26:27;;;;;;;12.67;12.17;;;15.70;99.90;;;;;;5095281;27;20473;-66
2023/06/12 02:29:10;;;;;;;12.37;11.87;;;15.60;99.90;;;;;;5105149;27;20937;-67
2023/06/12 02:31:37;;;;;;;12.40;11.90;;;15.60;99.90;;;;;;5111715;27;20551;-68
2023/06/12 02:34:04;;;;;;;12.67;12.17;;;15.70;99.90;;;;;;5114993;27;20457;-67
2023/06/12 02:36:39;;;;;;;12.73;12.23;;;15.80;99.90;;;;;;5101707;27;20546;-67
2023/06/12 02:39:06;;;;;;;12.50;12.00;;;15.90;99.90;;;;;;5110606;27;20461;-67
2023/06/12 02:41:33;;;;;;;12.00;11.57;;;16.00;99.90;;;;;;5124532;27;20453;-68
2023/06/12 02:44:00;;;;;;;12.10;11.70;;;15.90;99.90;;;;;;5112556;27;20450;-67
2023/06/12 02:46:26;;;;;;;12.40;11.90;;;15.80;99.90;;;;;;5108492;27;20462;-67
2023/06/12 02:48:53;;;;;;;14.07;13.40;;;15.60;99.90;;;;;;5099691;27;20841;-68
2023/06/12 02:51:21;;;;;;;12.40;11.90;;;15.50;99.90;;;;;;5121313;27;20588;-68
2023/06/12 02:53:49;;;;;;;12.57;12.07;;;15.40;99.90;;;;;;5102791;27;20961;-68
2023/06/12 02:56:16;;;;;;;12.47;11.97;;;15.40;99.90;;;;;;5107577;27;20471;-67
2023/06/12 02:58:44;;;;;;;12.37;11.87;;;15.30;99.90;;;;;;5107178;27;20472;-68
2023/06/12 03:01:11;;;;;;;12.67;12.17;;;15.20;99.90;;;;;;5104247;27;20560;-68
2023/06/12 03:03:39;;;;;;;12.30;11.80;;;15.10;99.90;;;;;;5120487;27;20462;-68
2023/06/12 03:06:08;;;;;;;12.37;11.87;;;15.00;99.90;;;;;;5118989;27;20546;-67
2023/06/12 03:08:35;;;;;;;11.87;11.47;;;15.00;99.90;;;;;;5102186;27;20457;-68
2023/06/12 03:11:04;;;;;;;12.37;11.87;;;15.00;99.90;;;;;;5094566;28;20940;-67
2023/06/12 03:13:32;;;;;;;12.33;11.83;;;14.90;99.90;;;;;;5122250;27;20465;-67
2023/06/12 03:15:58;;;;;;;12.47;11.97;;;14.90;99.90;;;;;;5110032;28;20468;-67
2023/06/12 03:18:25;;;;;;;13.03;12.53;;;14.80;99.90;;;;;;5106242;27;20463;-67
2023/06/12 03:20:53;;;;;;;12.20;11.70;;;14.80;99.90;;;;;;5093652;28;20465;-67
2023/06/12 03:23:21;;;;;;;12.67;12.17;;;14.80;99.90;;;;;;5109100;27;20463;-67
2023/06/12 03:25:48;;;;;;;12.47;11.97;;;14.80;99.90;;;;;;5117089;27;20988;-67
2023/06/12 03:28:18;;;;;;;12.70;12.20;;;14.70;99.90;;;;;;5114063;27;20576;-66
2023/06/12 03:30:45;;;;;;;12.23;11.73;;;14.60;99.90;;;;;;5102573;27;20489;-66
2023/06/12 03:33:12;;;;;;;12.53;12.03;;;14.60;99.90;;;;;;5106753;27;20513;-67
2023/06/12 03:35:40;;;;;;;12.40;11.90;;;14.60;99.90;;;;;;5097802;27;20541;-67
2023/06/12 03:38:09;;;;;;;12.20;11.73;;;14.60;99.90;;;;;;5118741;27;20483;-67
2023/06/12 03:40:36;;;;;;;11.93;11.53;;;14.50;99.90;;;;;;5116312;27;20552;-67
2023/06/12 03:43:03;;;;;;;11.87;11.47;;;14.60;99.90;;;;;;5118378;27;20552;-67
2023/06/12 03:45:32;;;;;;;15.03;14.33;;;14.50;99.90;;;;;;5099064;27;20487;-67
2023/06/12 03:47:59;;;;;;;11.53;11.13;;;14.50;99.90;;;;;;5094374;27;20458;-67
2023/06/12 03:50:26;;;;;;;11.23;10.83;;;14.50;99.90;;;;;;5111628;27;20512;-67
2023/06/12 03:52:54;;;;;;;11.20;10.80;;;14.50;99.90;;;;;;5118620;27;20834;-67
2023/06/12 03:55:23;;;;;;;11.53;11.13;;;14.50;99.90;;;;;;5111175;27;20460;-67
2023/06/12 03:57:50;;;;;;;10.83;10.43;;;14.50;99.90;;;;;;5111618;27;20511;-67
2023/06/12 04:00:19;;;;;;;11.27;10.87;;;14.50;99.90;;;;;;5108664;27;20540;-67
2023/06/12 04:03:03;;;;;;;11.60;11.20;;;14.50;99.90;;;;;;5108491;27;20480;-68
2023/06/12 04:05:33;;;;;;;11.90;11.50;;;14.60;99.90;;;;;;5096934;27;20534;-67
2023/06/12 04:08:00;;;;;;;11.67;11.27;;;14.60;99.90;;;;;;5102100;27;20453;-68
2023/06/12 04:10:28;;;;;;;11.60;11.20;;;14.70;99.90;;;;;;5113169;27;20518;-67
2023/06/12 04:12:56;;;;;;;12.57;12.07;;;14.70;99.90;;;;;;5123110;27;20564;-67
2023/06/12 04:15:23;;;;;;;12.10;11.60;;;14.70;99.90;;;;;;5112608;27;20480;-67
2023/06/12 04:17:50;;;;;;;12.30;11.80;;;14.70;99.90;;;;;;5110792;27;20545;-68
2023/06/12 04:20:18;;;;;;;12.47;11.97;;;14.80;99.90;;;;;;5109750;27;20461;-67
2023/06/12 04:22:49;;;;;;;12.40;11.90;;;14.90;99.90;;;;;;5093133;28;21055;-67
2023/06/12 04:25:16;;;;;;;12.20;11.70;;;14.90;99.90;;;;;;5095287;27;20485;-67
2023/06/12 04:27:46;;;;;;;12.07;11.57;;;15.00;99.90;;;;;;5111234;27;20464;-67
2023/06/12 04:30:15;;;;;;;12.77;12.27;;;15.00;99.90;;;;;;5117980;27;20488;-68
2023/06/12 04:32:42;;;;;;;12.80;12.30;;;15.00;99.90;;;;;;5102984;27;20547;-69
2023/06/12 04:35:10;;;;;;;13.27;12.77;;;15.10;99.90;;;;;;5104961;27;20540;-67
2023/06/12 04:37:38;;;;;;;13.40;12.90;;;15.30;99.90;;;;;;5108713;28;20788;-69
2023/06/12 04:40:08;;;;;;;12.47;11.97;;;15.40;99.90;;;;;;5122391;27;20489;-73
2023/06/12 04:42:36;;;;;;;12.33;11.83;;;15.50;99.90;;;;;;5096918;28;20460;-68
2023/06/12 04:45:04;;;;;;;12.83;12.30;;;15.60;99.90;;;;;;5119662;27;20464;-68
2023/06/12 04:47:31;;;;;;;12.40;11.90;;;15.60;99.90;;;;;;5108482;27;20549;-68
2023/06/12 04:49:59;;;;;;;12.47;11.97;;;15.60;99.90;;;;;;5098021;28;20457;-68
2023/06/12 04:52:27;;;;;;;13.00;12.50;;;15.60;99.90;;;;;;5106583;27;20501;-66
2023/06/12 04:54:59;;;;;;;13.00;12.50;;;15.80;99.90;;;;;;5102415;27;20848;-66
2023/06/12 04:57:27;;;;;;;13.03;12.53;;;15.90;99.90;;;;;;5105390;28;20931;-67
2023/06/12 04:59:54;;;;;;;13.10;12.60;;;16.10;99.90;;;;;;5120443;27;20985;-67
2023/06/12 05:02:21;;;;;;;13.00;12.50;;;16.20;99.90;;;;;;5096127;27;20461;-67
2023/06/12 05:04:48;;;;;;;13.43;12.93;;;16.40;99.90;;;;;;5088158;28;20466;-67
2023/06/12 05:07:16;;;;;;;13.80;13.20;;;16.50;99.90;;;;;;5095378;28;20472;-67
2023/06/12 05:09:44;;;;;;;13.13;12.63;;;16.70;99.90;;;;;;5099987;28;20456;-67
2023/06/12 05:12:12;;;;;;;13.30;12.80;;;16.90;99.90;;;;;;5091826;28;20485;-67
2023/06/12 05:14:40;;;;;;;13.67;13.10;;;17.10;99.90;;;;;;5096715;28;20465;-66
2023/06/12 05:17:07;;;;;;;14.10;13.50;;;17.30;99.90;;;;;;5098052;28;20484;-68
2023/06/12 05:19:38;;;;;;;14.30;13.70;;;17.40;99.90;;;;;;5091383;28;20461;-68
2023/06/12 05:22:05;;;;;;;14.03;13.43;;;17.50;99.90;;;;;;5100509;28;20444;-67
2023/06/12 05:24:32;;;;;;;14.10;13.50;;;17.70;99.90;;;;;;5092930;28;20465;-67
2023/06/12 05:27:00;;;;;;;14.17;13.57;;;17.90;99.90;;;;;;5101882;28;20898;-67
2023/06/12 05:29:28;;;;;;;14.20;13.60;;;18.10;99.90;;;;;;5106942;28;20561;-66
2023/06/12 05:31:55;;;;;;;13.90;13.30;;;18.30;99.90;;;;;;5099704;28;20485;-67
2023/06/12 05:34:21;;;;;;;15.17;14.57;;;18.50;99.90;;;;;;5089260;28;20466;-67
2023/06/12 05:36:48;;;;;;;14.90;14.30;;;18.70;99.90;;;;;;5104622;27;20479;-67
2023/06/12 05:39:15;;;;;;;15.17;14.47;;;19.00;99.90;;;;;;5113938;27;21034;-67
2023/06/12 05:41:42;;;;;;;14.90;14.30;;;19.20;99.90;;;;;;5108490;28;20445;-68
2023/06/12 05:44:10;;;;;;;14.67;14.07;;;19.30;99.90;;;;;;5101102;28;21044;-67
2023/06/12 05:46:38;;;;;;;16.00;15.10;;;19.50;99.90;;;;;;5096242;27;20472;-67
2023/06/12 05:49:06;;;;;;;14.80;14.20;;;19.80;99.90;;;;;;5090410;27;20453;-67
2023/06/12 05:51:33;;;;;;;14.97;14.37;;;19.80;99.90;;;;;;5101399;27;20546;-67
2023/06/12 05:54:00;;;;;;;15.43;14.73;;;20.00;99.90;;;;;;5098379;27;20576;-67
2023/06/12 05:56:27;;;;;;;14.30;13.70;;;20.20;99.90;;;;;;5093797;27;20539;-67
2023/06/12 05:58:53;;;;;;;15.50;14.80;;;20.30;99.90;;;;;;5087771;27;20461;-67
2023/06/12 06:01:25;;;;;;;14.50;13.90;;;20.50;99.90;;;;;;5094861;28;20468;-67
2023/06/12 06:03:53;;;;;;;14.80;14.20;;;20.60;99.90;;;;;;5089620;27;20498;-67
2023/06/12 06:06:20;;;;;;;14.83;14.23;;;20.70;99.90;;;;;;5102427;27;20460;-67
2023/06/12 06:08:47;;;;;;;14.97;14.37;;;20.90;99.90;;;;;;5098380;27;20461;-67
2023/06/12 06:11:14;;;;;;;15.60;14.90;;;21.10;99.90;;;;;;5095005;27;20484;-68
2023/06/12 06:13:43;;;;;;;15.97;15.17;;;21.10;99.90;;;;;;5092031;27;20473;-67
2023/06/12 06:16:10;;;;;;;16.20;15.43;;;21.30;99.90;;;;;;5096977;27;20480;-67
2023/06/12 06:18:37;;;;;;;15.40;14.63;;;21.50;99.90;;;;;;5091459;28;20453;-68
2023/06/12 06:21:05;;;;;;;15.23;14.63;;;21.40;99.90;;;;;;5098042;27;20867;-67
2023/06/12 06:23:33;;;;;;;14.90;14.30;;;21.50;99.90;;;;;;5102488;27;20848;-67
2023/06/12 06:26:01;;;;;;;14.93;14.30;;;21.50;99.90;;;;;;5098249;27;20509;-68
2023/06/12 06:28:28;;;;;;;15.43;14.73;;;21.40;99.90;;;;;;5090116;27;20545;-68
2023/06/12 06:30:55;;;;;;;19.03;15.07;;;21.50;99.90;;;;;;5094429;27;20462;-67
2023/06/12 06:33:22;;;;;;;16.10;15.30;;;21.70;99.90;;;;;;5089659;27;20909;-67
2023/06/12 06:35:49;;;;;;;15.20;14.53;;;21.80;99.90;;;;;;5096932;27;20472;-67
2023/06/12 06:38:21;;;;;;;15.67;14.97;;;21.80;99.90;;;;;;5099754;27;20478;-67
2023/06/12 06:40:47;;;;;;;14.90;14.30;;;21.90;99.90;;;;;;5094386;27;20473;-67
2023/06/12 06:43:15;;;;;;;14.67;14.07;;;22.00;99.90;;;;;;5102585;27;20453;-67
2023/06/12 06:45:42;;;;;;;15.50;14.80;;;22.00;99.90;;;;;;5094516;27;20461;-68
2023/06/12 06:48:10;;;;;;;16.07;15.33;;;22.20;99.90;;;;;;5102485;27;20458;-67
2023/06/12 06:50:37;;;;;;;15.70;14.63;;;22.50;99.90;;;;;;5108227;27;20885;-67
2023/06/12 06:53:04;;;;;;;15.50;14.80;;;22.70;99.90;;;;;;5086773;28;20501;-68
2023/06/12 06:55:33;;;;;;;15.53;14.83;;;22.90;99.90;;;;;;5095563;27;20465;-68
2023/06/12 06:58:00;;;;;;;15.73;15.03;;;23.10;99.90;;;;;;5097627;27;20455;-68
2023/06/12 07:00:28;;;;;;;15.40;14.80;;;23.30;99.90;;;;;;5100972;27;20449;-68
2023/06/12 07:02:55;;;;;;;14.90;14.30;;;23.40;99.90;;;;;;5101264;27;20473;-68
2023/06/12 07:05:22;;;;;;;15.20;14.60;;;23.50;99.90;;;;;;5098527;27;20537;-68
2023/06/12 07:07:49;;;;;;;14.80;14.20;;;23.80;99.90;;;;;;5092889;27;20564;-69
2023/06/12 07:10:17;;;;;;;15.80;15.10;;;23.90;99.90;;;;;;5080725;27;20484;-68
2023/06/12 07:12:45;;;;;;;15.97;15.27;;;23.90;99.90;;;;;;5098520;27;20597;-68
2023/06/12 07:15:12;;;;;;;15.33;14.73;;;24.10;99.90;;;;;;5093113;27;20760;-67
2023/06/12 07:17:39;;;;;;;15.50;14.80;;;24.30;99.90;;;;;;5102570;27;20466;-68
2023/06/12 07:20:08;;;;;;;16.17;15.27;;;24.50;99.90;;;;;;5087564;27;20847;-68
2023/06/12 07:22:35;;;;;;;15.80;14.97;;;24.40;99.90;;;;;;5087522;27;20836;-68
2023/06/12 07:25:02;;;;;;;15.43;14.83;;;24.40;99.90;;;;;;5085762;27;20461;-68
2023/06/12 07:27:29;;;;;;;15.43;14.83;;;24.40;99.90;;;;;;5087660;27;20863;-68
2023/06/12 07:29:58;;;;;;;15.90;15.20;;;24.50;99.90;;;;;;5094590;27;21255;-68
2023/06/12 07:32:24;;;;;;;15.93;15.23;;;24.70;99.90;;;;;;5098942;27;20480;-67
2023/06/12 07:34:54;;;;;;;14.80;14.20;;;24.80;99.90;;;;;;5089435;27;20453;-68
2023/06/12 07:37:22;;;;;;;15.90;15.20;;;24.70;99.90;;;;;;5086789;27;21016;-68
2023/06/12 07:39:48;;;;;;;15.53;14.83;;;25.10;99.90;;;;;;5095954;27;20822;-68
2023/06/12 07:42:16;;;;;;;16.30;15.60;;;25.40;99.90;;;;;;5079237;28;20469;-68
2023/06/12 07:44:42;;;;;;;15.10;14.50;;;25.20;99.90;;;;;;5087061;27;21250;-68
2023/06/12 07:47:11;;;;;;;15.80;15.10;;;25.50;99.90;;;;;;5093753;28;20489;-69
2023/06/12 07:49:38;;;;;;;16.63;15.93;;;25.50;99.90;;;;;;5080855;27;20819;-69
2023/06/12 07:52:05;;;;;;;15.20;14.60;;;25.70;99.90;;;;;;5090754;27;20586;-68
2023/06/12 07:54:32;;;;;;;15.70;15.00;;;25.70;99.90;;;;;;5078677;28;21044;-68
2023/06/12 07:56:59;;;;;;;15.80;15.10;;;26.00;99.90;;;;;;5089602;27;20463;-69
2023/06/12 07:59:26;;;;;;;14.83;14.23;;;26.00;99.90;;;;;;5084361;27;20458;-68
2023/06/12 08:01:53;;;;;;;15.47;14.80;;;26.20;99.90;;;;;;5086413;27;20558;-69
2023/06/12 08:04:22;;;;;;;16.00;15.30;;;26.60;99.90;;;;;;5090027;27;20905;-69
2023/06/12 08:06:49;;;;;;;18.63;17.70;;;27.10;99.80;;;;;;5097031;27;20535;-69
2023/06/12 08:09:17;;;;;;;15.00;14.40;;;27.80;98.60;;;;;;5086809;28;20958;-69
2023/06/12 08:11:43;;;;;;;18.03;17.10;;;28.20;96.80;;;;;;5089967;27;20539;-69
2023/06/12 08:14:10;;;;;;;15.67;14.97;;;28.50;95.90;;;;;;5102258;27;20459;-69
2023/06/12 08:16:38;;;;;;;15.20;14.60;;;29.10;95.30;;;;;;5083989;28;20490;-66
2023/06/12 08:19:06;;;;;;;17.90;17.10;;;29.50;94.60;;;;;;5097226;27;20453;-66
2023/06/12 08:21:34;;;;;;;17.60;16.80;;;29.70;92.00;;;;;;5098960;27;20957;-66
2023/06/12 08:24:01;;;;;;;16.10;15.40;;;29.40;92.20;;;;;;5102624;27;20974;-69
2023/06/12 08:26:28;;;;;;;16.63;15.83;;;30.10;91.70;;;;;;5100948;27;20899;-69
2023/06/12 08:28:57;;;;;;;16.63;15.93;;;29.90;90.60;;;;;;5090932;28;20982;-69
2023/06/12 08:31:23;;;;;;;15.93;15.23;;;30.30;90.40;;;;;;5099323;27;20506;-69
2023/06/12 08:33:50;;;;;;;16.77;16.07;;;30.40;89.10;;;;;;5086720;28;20932;-67
2023/06/12 08:36:17;;;;;;;17.33;16.53;;;31.10;87.20;;;;;;5090735;28;20463;-67
2023/06/12 08:38:46;;;;;;;18.70;17.60;;;31.10;85.50;;;;;;5098136;27;20475;-66
2023/06/12 08:41:17;;;;;;;16.07;15.37;;;31.80;84.00;;;;;;5089141;27;21062;-67
2023/06/12 08:43:46;;;;;;;15.90;15.20;;;32.00;80.20;;;;;;5092235;27;20960;-67
2023/06/12 08:46:17;;;;;;;16.20;15.50;;;31.80;81.00;;;;;;5100737;27;20547;-67
2023/06/12 08:48:45;;;;;;;16.93;16.20;;;31.70;79.40;;;;;;5093818;28;20923;-67
2023/06/12 08:51:13;;;;;;;17.40;16.60;;;32.40;77.90;;;;;;5089645;27;20945;-67
2023/06/12 08:53:40;;;;;;;16.57;15.87;;;32.50;75.40;;;;;;5086615;28;20494;-67
2023/06/12 08:56:11;;;;;;;17.30;16.50;;;32.40;74.60;;;;;;5094612;28;20501;-67
2023/06/12 08:58:38;;;;;;;15.60;15.00;;;33.10;71.70;;;;;;5096212;28;20979;-66
2023/06/12 09:01:07;;;;;;;15.17;14.57;;;33.30;70.80;;;;;;5095478;27;20753;-68
2023/06/12 09:03:36;;;;;;;17.53;16.67;;;33.30;69.80;;;;;;5096438;28;20457;-66
2023/06/12 09:06:07;;;;;;;14.90;14.30;;;33.50;68.90;;;;;;5101333;28;20545;-67
2023/06/12 09:08:35;;;;;;;15.73;15.13;;;33.70;66.40;;;;;;5087616;28;20787;-68
2023/06/12 09:11:03;;;;;;;17.00;16.17;;;33.70;67.20;;;;;;5087837;28;20457;-67
2023/06/12 09:13:42;;;;;;;15.27;14.67;;;33.70;66.70;;;;;;5099097;27;20577;-68
2023/06/12 09:16:12;;;;;;;15.73;15.03;;;34.20;66.10;;;;;;5093216;27;20478;-67
2023/06/12 09:18:49;;;;;;;16.80;16.00;;;34.60;64.20;;;;;;5099891;28;20515;-67
2023/06/12 09:21:16;;;;;;;17.13;16.43;;;34.30;61.50;;;;;;5090702;27;20545;-68
2023/06/12 09:23:45;;;;;;;16.07;15.43;;;34.70;58.90;;;;;;5095599;27;20457;-67
2023/06/12 09:26:15;;;;;;;15.13;14.53;;;34.80;58.70;;;;;;5106566;27;20547;-68
2023/06/12 09:28:51;;;;;;;15.80;15.20;;;34.80;58.50;;;;;;5094394;28;21015;-67
2023/06/12 09:31:18;;;;;;;15.13;14.53;;;34.50;57.50;;;;;;5108082;27;20899;-67
2023/06/12 09:33:45;;;;;;;15.33;14.73;;;34.20;56.80;;;;;;5085474;27;21074;-67
2023/06/12 09:36:13;;;;;;;15.30;14.70;;;34.10;59.50;;;;;;5098858;27;20496;-68
2023/06/12 09:38:40;;;;;;;14.70;14.10;;;34.50;58.40;;;;;;5095037;27;20580;-67
2023/06/12 09:41:10;;;;;;;17.83;16.00;;;34.50;59.00;;;;;;5100000;27;20465;-67
2023/06/12 09:43:38;;;;;;;18.13;17.43;;;33.70;58.20;;;;;;5094059;27;20465;-67
2023/06/12 09:46:08;;;;;;;15.90;15.20;;;34.50;57.50;;;;;;5095719;28;21026;-67
2023/06/12 09:48:36;;;;;;;14.27;13.77;;;34.60;57.50;;;;;;5107605;27;20448;-67
2023/06/12 09:51:06;;;;;;;15.40;14.80;;;34.70;57.80;;;;;;5092401;27;20519;-67
2023/06/12 09:53:37;;;;;;;13.80;13.30;;;35.30;57.10;;;;;;5104036;27;20902;-67
2023/06/12 09:56:06;;;;;;;17.10;16.40;;;35.40;56.30;;;;;;5087782;27;20453;-67
2023/06/12 09:58:36;;;;;;;15.67;14.97;;;35.80;55.70;;;;;;5113384;27;21126;-67
2023/06/12 10:01:05;;;;;;;15.07;14.37;;;35.70;55.60;;;;;;5097039;28;20453;-67
2023/06/12 10:03:36;;;;;;;14.20;13.70;;;35.40;55.90;;;;;;5106793;27;20488;-67
2023/06/12 10:06:04;;;;;;;15.50;14.90;;;35.90;55.90;;;;;;5101987;27;20450;-68
2023/06/12 10:08:31;;;;;;;14.77;14.10;;;36.80;54.80;;;;;;5100469;27;20465;-68
2023/06/12 10:10:58;;;;;;;15.53;14.93;;;36.30;55.30;;;;;;5099086;27;20785;-67
2023/06/12 10:13:26;;;;;;;14.20;13.70;;;36.40;54.70;;;;;;5094400;27;20561;-67
2023/06/12 10:15:53;;;;;;;14.70;14.00;;;36.70;54.70;;;;;;5104582;27;21006;-67
2023/06/12 10:18:22;;;;;;;15.27;14.63;;;36.90;55.00;;;;;;5096598;27;20474;-68
2023/06/12 10:20:52;;;;;;;14.83;14.13;;;36.80;53.20;;;;;;5086293;27;20466;-67
2023/06/12 10:23:19;;;;;;;15.50;14.90;;;37.50;51.50;;;;;;5093809;28;20852;-67
2023/06/12 10:25:47;;;;;;;14.87;14.27;;;36.80;52.00;;;;;;5099248;27;20818;-68
2023/06/12 10:28:15;;;;;;;14.97;14.30;;;36.90;51.80;;;;;;5088931;27;20466;-67
2023/06/12 10:31:11;;;;;;;16.67;15.87;;;37.40;51.10;;;;;;5098367;27;21039;-67
2023/06/12 10:33:38;;;;;;;20.63;14.53;;;37.50;51.60;;;;;;5091594;27;20504;-67
2023/06/12 10:36:12;;;;;;;13.77;13.27;;;37.30;50.70;;;;;;5101135;27;20461;-67
2023/06/12 10:38:45;;;;;;;14.43;13.83;;;38.30;50.80;;;;;;5096745;28;21008;-68
2023/06/12 10:41:12;;;;;;;15.00;14.40;;;38.30;50.10;;;;;;5092042;28;20994;-67
2023/06/12 10:43:40;;;;;;;16.20;15.50;;;37.20;50.00;;;;;;5094769;27;20848;-67
2023/06/12 10:46:11;;;;;;;14.73;14.13;;;35.80;50.30;;;;;;5093677;27;20519;-67
2023/06/12 10:48:47;;;;;;;15.03;14.43;;;35.80;51.10;;;;;;5102938;27;21054;-67
2023/06/12 10:51:15;;;;;;;14.67;13.87;;;36.60;51.50;;;;;;5095799;27;20468;-68
2023/06/12 10:53:44;;;;;;;13.97;13.47;;;37.50;50.00;;;;;;5096651;28;20477;-67
2023/06/12 10:56:11;;;;;;;15.27;14.67;;;37.30;49.20;;;;;;5097263;27;20544;-67
2023/06/12 10:58:39;;;;;;;13.80;13.30;;;37.90;49.30;;;;;;5093388;27;21411;-68
2023/06/12 11:01:10;;;;;;;14.37;13.77;;;38.40;48.70;;;;;;5096660;28;20484;-68
2023/06/12 11:03:42;;;;;;;13.20;12.70;;;38.50;48.60;;;;;;5088744;27;20457;-68
2023/06/12 11:06:13;;;;;;;13.80;13.30;;;38.40;47.40;;;;;;5096555;27;20499;-68
2023/06/12 11:08:42;;;;;;;14.73;14.13;;;38.70;45.80;;;;;;5106970;27;20538;-68
2023/06/12 11:11:09;;;;;;;14.50;13.90;;;37.70;46.40;;;;;;5104462;27;20991;-68
2023/06/12 11:13:40;;;;;;;15.80;15.10;;;37.90;45.70;;;;;;5090108;27;21043;-68
2023/06/12 11:16:07;;;;;;;14.93;14.33;;;37.80;45.80;;;;;;5094100;27;21229;-66
2023/06/12 11:18:34;;;;;;;14.90;14.20;;;37.40;47.50;;;;;;5094853;27;20456;-68
2023/06/12 11:21:00;;;;;;;14.10;13.60;;;37.50;46.40;;;;;;5090113;27;21117;-67
2023/06/12 11:23:29;;;;;;;15.17;14.50;;;38.60;45.90;;;;;;5102306;27;20464;-67
2023/06/12 11:25:59;;;;;;;14.40;13.83;;;38.50;44.80;;;;;;5097247;27;20562;-67
2023/06/12 11:28:29;;;;;;;14.47;13.90;;;38.90;44.70;;;;;;5104967;27;20668;-67
2023/06/12 11:30:56;;;;;;;15.20;14.60;;;39.90;44.40;;;;;;5100280;27;20459;-68
2023/06/12 11:33:23;;;;;;;16.40;15.70;;;39.60;43.30;;;;;;5096938;27;20572;-67
2023/06/12 11:35:52;;;;;;;14.80;14.20;;;39.00;44.20;;;;;;5096401;27;20469;-68
2023/06/12 11:38:20;;;;;;;14.83;14.23;;;38.50;43.50;;;;;;5106255;27;20911;-68
2023/06/12 11:40:49;;;;;;;15.03;14.43;;;37.80;44.10;;;;;;5096129;27;20520;-68
2023/06/12 11:43:18;;;;;;;15.83;15.13;;;39.00;44.60;;;;;;5081118;28;20986;-67
2023/06/12 11:45:46;;;;;;;14.30;13.60;;;39.50;43.90;;;;;;5094994;27;20462;-67
2023/06/12 11:48:14;;;;;;;13.70;13.20;;;39.80;42.50;;;;;;5101538;27;20463;-67
2023/06/12 11:50:42;;;;;;;15.10;14.40;;;39.80;43.10;;;;;;5095553;27;20769;-68
2023/06/12 11:53:08;;;;;;;16.60;15.30;;;40.10;42.00;;;;;;5103402;27;20584;-68
2023/06/12 11:55:36;;;;;;;86.13;42.43;;;39.90;43.10;;;;;;5095581;27;20827;-68
2023/06/12 11:58:03;;;;;;;14.77;14.17;;;38.50;43.20;;;;;;5103655;27;20441;-67
2023/06/12 12:00:34;;;;;;;14.70;14.10;;;38.60;42.40;;;;;;5098686;27;20453;-68
2023/06/12 12:03:03;;;;;;;15.20;14.60;;;38.80;42.00;;;;;;5087231;27;20458;-68
2023/06/12 12:05:37;;;;;;;16.10;15.40;;;39.50;42.50;;;;;;5091100;27;20461;-68
2023/06/12 12:08:05;;;;;;;15.37;14.77;;;39.80;41.10;;;;;;5088407;27;20458;-67
2023/06/12 12:10:33;;;;;;;15.03;14.43;;;41.20;40.70;;;;;;5093627;27;20463;-68
2023/06/12 12:13:01;;;;;;;15.77;14.87;;;41.50;40.30;;;;;;5092429;28;20510;-68
2023/06/12 12:15:29;;;;;;;14.37;13.87;;;41.50;38.70;;;;;;5087571;28;20497;-68
2023/06/12 12:17:59;;;;;;;13.27;12.77;;;40.20;39.40;;;;;;5093300;27;20473;-68
2023/06/12 12:20:26;;;;;;;14.00;13.50;;;40.90;39.90;;;;;;5103259;27;20457;-67
2023/06/12 12:22:56;;;;;;;14.63;14.03;;;41.00;38.60;;;;;;5097607;27;20446;-69
2023/06/12 12:25:25;;;;;;;13.93;13.43;;;40.80;37.70;;;;;;5098934;27;20458;-68
2023/06/12 12:27:53;;;;;;;14.40;13.80;;;40.10;38.10;;;;;;5107137;27;20468;-69
2023/06/12 12:30:21;;;;;;;14.70;14.10;;;39.40;37.50;;;;;;5099425;27;20462;-68
2023/06/12 12:32:49;;;;;;;15.00;14.40;;;38.90;38.60;;;;;;5094484;27;20548;-68
2023/06/12 12:35:18;;;;;;;14.10;13.60;;;37.90;39.30;;;;;;5096032;27;20493;-68
2023/06/12 12:37:45;;;;;;;15.20;14.60;;;37.70;40.10;;;;;;5095832;27;20497;-68